<?xml version="1.0" encoding="UTF-8" standalone="no" ?>
<gpx xmlns="http://www.topografix.com/GPX/1/1" xmlns:xsi="http://www.w3.org/2001/XMLSchema-instance" xsi:schemaLocation="http://www.topografix.com/GPX/1/1 http://www.topografix.com/GPX/1/1/gpx.xsd" version="1.1" creator="VisuGPX - https://www.visugpx.com">
  <metadata>
    <name>Sortie définitive vélo citoyen 2019</name>
  </metadata>
  <trk>
    <name><![CDATA[20190507214625-BFxQM]]></name>
    <trkseg>
      <trkpt lat="45.5863" lon="4.99908">
        <ele>292</ele>
        <time>2018-05-24T09:31:25Z</time>
      </trkpt>
      <trkpt lat="45.5865" lon="4.99926">
        <ele>291</ele>
        <time>2018-05-24T09:37:11Z</time>
      </trkpt>
      <trkpt lat="45.58658" lon="4.99957">
        <ele>293</ele>
        <time>2018-05-24T09:37:26Z</time>
      </trkpt>
      <trkpt lat="45.58679" lon="4.99973">
        <ele>294</ele>
        <time>2018-05-24T09:37:38Z</time>
      </trkpt>
      <trkpt lat="45.58687" lon="4.99942">
        <ele>297</ele>
        <time>2018-05-24T09:37:51Z</time>
      </trkpt>
      <trkpt lat="45.58679" lon="4.99912">
        <ele>298</ele>
        <time>2018-05-24T09:38:00Z</time>
      </trkpt>
      <trkpt lat="45.58667" lon="4.99884">
        <ele>300</ele>
        <time>2018-05-24T09:38:11Z</time>
      </trkpt>
      <trkpt lat="45.58655" lon="4.99855">
        <ele>302</ele>
        <time>2018-05-24T09:38:22Z</time>
      </trkpt>
      <trkpt lat="45.58649" lon="4.99824">
        <ele>303</ele>
        <time>2018-05-24T09:39:17Z</time>
      </trkpt>
      <trkpt lat="45.58667" lon="4.99804">
        <ele>304</ele>
        <time>2018-05-24T09:39:30Z</time>
      </trkpt>
      <trkpt lat="45.58688" lon="4.9979">
        <ele>306</ele>
        <time>2018-05-24T09:39:42Z</time>
      </trkpt>
      <trkpt lat="45.58706" lon="4.99771">
        <ele>307</ele>
        <time>2018-05-24T09:39:56Z</time>
      </trkpt>
      <trkpt lat="45.58725" lon="4.99753">
        <ele>309</ele>
        <time>2018-05-24T09:40:08Z</time>
      </trkpt>
      <trkpt lat="45.58744" lon="4.99734">
        <ele>312</ele>
        <time>2018-05-24T09:40:22Z</time>
      </trkpt>
      <trkpt lat="45.58765" lon="4.99721">
        <ele>314</ele>
        <time>2018-05-24T09:40:36Z</time>
      </trkpt>
      <trkpt lat="45.58786" lon="4.99707">
        <ele>317</ele>
        <time>2018-05-24T09:40:50Z</time>
      </trkpt>
      <trkpt lat="45.58806" lon="4.99691">
        <ele>319</ele>
        <time>2018-05-24T09:41:03Z</time>
      </trkpt>
      <trkpt lat="45.58824" lon="4.99711">
        <ele>318</ele>
        <time>2018-05-24T09:41:22Z</time>
      </trkpt>
      <trkpt lat="45.5883" lon="4.99742">
        <ele>322</ele>
        <time>2018-05-24T09:41:35Z</time>
      </trkpt>
      <trkpt lat="45.58828" lon="4.99774">
        <ele>328</ele>
        <time>2018-05-24T09:48:00Z</time>
      </trkpt>
      <trkpt lat="45.5883" lon="4.99807">
        <ele>327</ele>
        <time>2018-05-24T09:48:15Z</time>
      </trkpt>
      <trkpt lat="45.58841" lon="4.99836">
        <ele>327</ele>
        <time>2018-05-24T09:48:29Z</time>
      </trkpt>
      <trkpt lat="45.58862" lon="4.99854">
        <ele>327</ele>
        <time>2018-05-24T09:49:25Z</time>
      </trkpt>
      <trkpt lat="45.58884" lon="4.99865">
        <ele>329</ele>
        <time>2018-05-24T09:49:36Z</time>
      </trkpt>
      <trkpt lat="45.58905" lon="4.99877">
        <ele>331</ele>
        <time>2018-05-24T09:49:48Z</time>
      </trkpt>
      <trkpt lat="45.58926" lon="4.99891">
        <ele>334</ele>
        <time>2018-05-24T09:50:05Z</time>
      </trkpt>
      <trkpt lat="45.5895" lon="4.99895">
        <ele>338</ele>
        <time>2018-05-24T09:50:20Z</time>
      </trkpt>
      <trkpt lat="45.58972" lon="4.99908">
        <ele>337</ele>
        <time>2018-05-24T09:51:31Z</time>
      </trkpt>
      <trkpt lat="45.58993" lon="4.9992">
        <ele>340</ele>
        <time>2018-05-24T09:51:43Z</time>
      </trkpt>
      <trkpt lat="45.59016" lon="4.9993">
        <ele>342</ele>
        <time>2018-05-24T09:51:56Z</time>
      </trkpt>
      <trkpt lat="45.59038" lon="4.99925">
        <ele>342</ele>
        <time>2018-05-24T09:52:08Z</time>
      </trkpt>
      <trkpt lat="45.59061" lon="4.99917">
        <ele>347</ele>
        <time>2018-05-24T09:52:21Z</time>
      </trkpt>
      <trkpt lat="45.59085" lon="4.99912">
        <ele>351</ele>
        <time>2018-05-24T09:52:34Z</time>
      </trkpt>
      <trkpt lat="45.59105" lon="4.99895">
        <ele>352</ele>
        <time>2018-05-24T09:52:46Z</time>
      </trkpt>
      <trkpt lat="45.59125" lon="4.99878">
        <ele>353</ele>
        <time>2018-05-24T09:53:04Z</time>
      </trkpt>
      <trkpt lat="45.59146" lon="4.99861">
        <ele>352</ele>
        <time>2018-05-24T09:53:16Z</time>
      </trkpt>
      <trkpt lat="45.59165" lon="4.99843">
        <ele>354</ele>
        <time>2018-05-24T09:53:28Z</time>
      </trkpt>
      <trkpt lat="45.59183" lon="4.99823">
        <ele>352</ele>
        <time>2018-05-24T09:53:47Z</time>
      </trkpt>
      <trkpt lat="45.59214" lon="4.99792">
        <ele>307.8</ele>
        <time>2018-05-24T09:54:02Z</time>
      </trkpt>
      <trkpt lat="45.59226" lon="4.99797">
        <ele>353</ele>
        <time>2018-05-24T09:54:13Z</time>
      </trkpt>
      <trkpt lat="45.5925" lon="4.99799">
        <ele>355</ele>
        <time>2018-05-24T09:54:24Z</time>
      </trkpt>
      <trkpt lat="45.59273" lon="4.99805">
        <ele>354</ele>
        <time>2018-05-24T09:54:34Z</time>
      </trkpt>
      <trkpt lat="45.59296" lon="4.99811">
        <ele>351</ele>
        <time>2018-05-24T09:54:49Z</time>
      </trkpt>
      <trkpt lat="45.59319" lon="4.99815">
        <ele>350</ele>
        <time>2018-05-24T09:58:33Z</time>
      </trkpt>
      <trkpt lat="45.59341" lon="4.99822">
        <ele>352</ele>
        <time>2018-05-24T09:58:44Z</time>
      </trkpt>
      <trkpt lat="45.59365" lon="4.99826">
        <ele>353</ele>
        <time>2018-05-24T10:01:37Z</time>
      </trkpt>
      <trkpt lat="45.59389" lon="4.99831">
        <ele>350</ele>
        <time>2018-05-24T10:01:49Z</time>
      </trkpt>
      <trkpt lat="45.59412" lon="4.99834">
        <ele>349</ele>
        <time>2018-05-24T10:01:59Z</time>
      </trkpt>
      <trkpt lat="45.59437" lon="4.9983">
        <ele>352</ele>
        <time>2018-05-24T10:02:09Z</time>
      </trkpt>
      <trkpt lat="45.5946" lon="4.99837">
        <ele>353</ele>
        <time>2018-05-24T10:02:19Z</time>
      </trkpt>
      <trkpt lat="45.59482" lon="4.99846">
        <ele>354</ele>
        <time>2018-05-24T10:02:29Z</time>
      </trkpt>
      <trkpt lat="45.59506" lon="4.99854">
        <ele>359</ele>
        <time>2018-05-24T10:02:39Z</time>
      </trkpt>
      <trkpt lat="45.59525" lon="4.99833">
        <ele>363</ele>
        <time>2018-05-24T10:02:49Z</time>
      </trkpt>
      <trkpt lat="45.59546" lon="4.99819">
        <ele>366</ele>
        <time>2018-05-24T10:03:00Z</time>
      </trkpt>
      <trkpt lat="45.59568" lon="4.99806">
        <ele>373</ele>
        <time>2018-05-24T10:03:12Z</time>
      </trkpt>
      <trkpt lat="45.59589" lon="4.99791">
        <ele>375</ele>
        <time>2018-05-24T10:03:24Z</time>
      </trkpt>
      <trkpt lat="45.59612" lon="4.99777">
        <ele>376</ele>
        <time>2018-05-24T10:03:36Z</time>
      </trkpt>
      <trkpt lat="45.59633" lon="4.99763">
        <ele>382</ele>
        <time>2018-05-24T10:03:49Z</time>
      </trkpt>
      <trkpt lat="45.5965" lon="4.99742">
        <ele>387</ele>
        <time>2018-05-24T10:04:04Z</time>
      </trkpt>
      <trkpt lat="45.5967" lon="4.99724">
        <ele>392</ele>
        <time>2018-05-24T10:04:21Z</time>
      </trkpt>
      <trkpt lat="45.59691" lon="4.99714">
        <ele>392</ele>
        <time>2018-05-24T10:04:37Z</time>
      </trkpt>
      <trkpt lat="45.59714" lon="4.99705">
        <ele>396</ele>
        <time>2018-05-24T10:04:53Z</time>
      </trkpt>
      <trkpt lat="45.59734" lon="4.99688">
        <ele>401</ele>
        <time>2018-05-24T10:05:07Z</time>
      </trkpt>
      <trkpt lat="45.5975" lon="4.99665">
        <ele>403</ele>
        <time>2018-05-24T10:09:35Z</time>
      </trkpt>
      <trkpt lat="45.5977" lon="4.99646">
        <ele>401</ele>
        <time>2018-05-24T10:18:19Z</time>
      </trkpt>
      <trkpt lat="45.59792" lon="4.99641">
        <ele>400</ele>
        <time>2018-05-24T10:18:31Z</time>
      </trkpt>
      <trkpt lat="45.59815" lon="4.99638">
        <ele>399</ele>
        <time>2018-05-24T10:18:44Z</time>
      </trkpt>
      <trkpt lat="45.59838" lon="4.99634">
        <ele>403</ele>
        <time>2018-05-24T10:18:58Z</time>
      </trkpt>
      <trkpt lat="45.59863" lon="4.9963">
        <ele>407</ele>
        <time>2018-05-24T10:19:12Z</time>
      </trkpt>
      <trkpt lat="45.59886" lon="4.99626">
        <ele>407</ele>
        <time>2018-05-24T10:19:25Z</time>
      </trkpt>
      <trkpt lat="45.59908" lon="4.99622">
        <ele>408</ele>
        <time>2018-05-24T10:19:37Z</time>
      </trkpt>
      <trkpt lat="45.59931" lon="4.99621">
        <ele>409</ele>
        <time>2018-05-24T10:19:49Z</time>
      </trkpt>
      <trkpt lat="45.59954" lon="4.99619">
        <ele>408</ele>
        <time>2018-05-24T10:20:02Z</time>
      </trkpt>
      <trkpt lat="45.59978" lon="4.99616">
        <ele>408</ele>
        <time>2018-05-24T10:20:15Z</time>
      </trkpt>
      <trkpt lat="45.60003" lon="4.99618">
        <ele>410</ele>
        <time>2018-05-24T10:20:28Z</time>
      </trkpt>
      <trkpt lat="45.60026" lon="4.99623">
        <ele>411</ele>
        <time>2018-05-24T10:20:40Z</time>
      </trkpt>
      <trkpt lat="45.60053" lon="4.99617">
        <ele>357</ele>
        <time>2018-05-24T10:20:52Z</time>
      </trkpt>
      <trkpt lat="45.60076" lon="4.99621">
        <ele>357.2</ele>
        <time>2018-05-24T10:21:04Z</time>
      </trkpt>
      <trkpt lat="45.601" lon="4.99619">
        <ele>357.4</ele>
        <time>2018-05-24T10:21:13Z</time>
      </trkpt>
      <trkpt lat="45.60126" lon="4.99621">
        <ele>357.4</ele>
        <time>2018-05-24T10:21:23Z</time>
      </trkpt>
      <trkpt lat="45.60151" lon="4.99626">
        <ele>357.4</ele>
        <time>2018-05-24T10:22:40Z</time>
      </trkpt>
      <trkpt lat="45.6018" lon="4.99631">
        <ele>356.2</ele>
        <time>2018-05-24T10:22:51Z</time>
      </trkpt>
      <trkpt lat="45.60207" lon="4.9964">
        <ele>353.6</ele>
        <time>2018-05-24T10:23:02Z</time>
      </trkpt>
      <trkpt lat="45.6023" lon="4.99651">
        <ele>351.3</ele>
        <time>2018-05-24T10:23:11Z</time>
      </trkpt>
      <trkpt lat="45.60249" lon="4.99663">
        <ele>349.1</ele>
        <time>2018-05-24T10:23:21Z</time>
      </trkpt>
      <trkpt lat="45.60258" lon="4.99683">
        <ele>404</ele>
        <time>2018-05-24T10:23:32Z</time>
      </trkpt>
      <trkpt lat="45.60269" lon="4.99649">
        <ele>401</ele>
        <time>2018-05-24T10:24:01Z</time>
      </trkpt>
      <trkpt lat="45.60273" lon="4.99611">
        <ele>401</ele>
        <time>2018-05-24T10:24:06Z</time>
      </trkpt>
      <trkpt lat="45.60274" lon="4.99576">
        <ele>402</ele>
        <time>2018-05-24T10:24:11Z</time>
      </trkpt>
      <trkpt lat="45.60277" lon="4.99544">
        <ele>403</ele>
        <time>2018-05-24T10:24:19Z</time>
      </trkpt>
      <trkpt lat="45.60281" lon="4.99509">
        <ele>404</ele>
        <time>2018-05-24T10:24:31Z</time>
      </trkpt>
      <trkpt lat="45.60282" lon="4.99475">
        <ele>404</ele>
        <time>2018-05-24T10:24:43Z</time>
      </trkpt>
      <trkpt lat="45.60283" lon="4.99442">
        <ele>403</ele>
        <time>2018-05-24T10:24:53Z</time>
      </trkpt>
      <trkpt lat="45.60281" lon="4.9941">
        <ele>404</ele>
        <time>2018-05-24T10:25:03Z</time>
      </trkpt>
      <trkpt lat="45.60279" lon="4.99377">
        <ele>405</ele>
        <time>2018-05-24T10:25:13Z</time>
      </trkpt>
      <trkpt lat="45.60276" lon="4.99343">
        <ele>406</ele>
        <time>2018-05-24T10:25:26Z</time>
      </trkpt>
      <trkpt lat="45.60273" lon="4.99311">
        <ele>406</ele>
        <time>2018-05-24T10:25:38Z</time>
      </trkpt>
      <trkpt lat="45.60272" lon="4.99278">
        <ele>407</ele>
        <time>2018-05-24T10:25:50Z</time>
      </trkpt>
      <trkpt lat="45.60272" lon="4.99245">
        <ele>409</ele>
        <time>2018-05-24T10:26:04Z</time>
      </trkpt>
      <trkpt lat="45.60273" lon="4.99211">
        <ele>410</ele>
        <time>2018-05-24T10:26:17Z</time>
      </trkpt>
      <trkpt lat="45.60277" lon="4.99177">
        <ele>409</ele>
        <time>2018-05-24T10:26:29Z</time>
      </trkpt>
      <trkpt lat="45.60285" lon="4.99144">
        <ele>407</ele>
        <time>2018-05-24T10:26:40Z</time>
      </trkpt>
      <trkpt lat="45.60293" lon="4.99111">
        <ele>407</ele>
        <time>2018-05-24T10:26:51Z</time>
      </trkpt>
      <trkpt lat="45.603" lon="4.99081">
        <ele>405</ele>
        <time>2018-05-24T10:27:03Z</time>
      </trkpt>
      <trkpt lat="45.60308" lon="4.9905">
        <ele>404</ele>
        <time>2018-05-24T10:27:14Z</time>
      </trkpt>
      <trkpt lat="45.60315" lon="4.99018">
        <ele>404</ele>
        <time>2018-05-24T10:27:26Z</time>
      </trkpt>
      <trkpt lat="45.6032" lon="4.98984">
        <ele>403</ele>
        <time>2018-05-24T10:27:38Z</time>
      </trkpt>
      <trkpt lat="45.60325" lon="4.9895">
        <ele>402</ele>
        <time>2018-05-24T10:27:50Z</time>
      </trkpt>
      <trkpt lat="45.60328" lon="4.98916">
        <ele>402</ele>
        <time>2018-05-24T10:28:01Z</time>
      </trkpt>
      <trkpt lat="45.60331" lon="4.98883">
        <ele>401</ele>
        <time>2018-05-24T10:28:11Z</time>
      </trkpt>
      <trkpt lat="45.60334" lon="4.9885">
        <ele>402</ele>
        <time>2018-05-24T10:28:23Z</time>
      </trkpt>
      <trkpt lat="45.60333" lon="4.98818">
        <ele>401</ele>
        <time>2018-05-24T10:28:34Z</time>
      </trkpt>
      <trkpt lat="45.60333" lon="4.98784">
        <ele>401</ele>
        <time>2018-05-24T10:28:45Z</time>
      </trkpt>
      <trkpt lat="45.60335" lon="4.98752">
        <ele>403</ele>
        <time>2018-05-24T10:28:56Z</time>
      </trkpt>
      <trkpt lat="45.60336" lon="4.9872">
        <ele>404</ele>
        <time>2018-05-24T10:29:08Z</time>
      </trkpt>
      <trkpt lat="45.60338" lon="4.98687">
        <ele>404</ele>
        <time>2018-05-24T10:29:20Z</time>
      </trkpt>
      <trkpt lat="45.6034" lon="4.98653">
        <ele>404</ele>
        <time>2018-05-24T10:29:33Z</time>
      </trkpt>
      <trkpt lat="45.60343" lon="4.98619">
        <ele>405</ele>
        <time>2018-05-24T10:29:45Z</time>
      </trkpt>
      <trkpt lat="45.60348" lon="4.98587">
        <ele>402</ele>
        <time>2018-05-24T10:29:56Z</time>
      </trkpt>
      <trkpt lat="45.60356" lon="4.98554">
        <ele>400</ele>
        <time>2018-05-24T10:30:08Z</time>
      </trkpt>
      <trkpt lat="45.60364" lon="4.98522">
        <ele>398</ele>
        <time>2018-05-24T10:30:20Z</time>
      </trkpt>
      <trkpt lat="45.60369" lon="4.98489">
        <ele>397</ele>
        <time>2018-05-24T10:30:32Z</time>
      </trkpt>
      <trkpt lat="45.60371" lon="4.98455">
        <ele>396</ele>
        <time>2018-05-24T10:30:45Z</time>
      </trkpt>
      <trkpt lat="45.60371" lon="4.98422">
        <ele>397</ele>
        <time>2018-05-24T10:31:14Z</time>
      </trkpt>
      <trkpt lat="45.60371" lon="4.98389">
        <ele>397</ele>
        <time>2018-05-24T10:31:27Z</time>
      </trkpt>
      <trkpt lat="45.6037" lon="4.98357">
        <ele>396</ele>
        <time>2018-05-24T10:31:38Z</time>
      </trkpt>
      <trkpt lat="45.60367" lon="4.98324">
        <ele>396</ele>
        <time>2018-05-24T10:31:49Z</time>
      </trkpt>
      <trkpt lat="45.60364" lon="4.98292">
        <ele>394</ele>
        <time>2018-05-24T10:32:00Z</time>
      </trkpt>
      <trkpt lat="45.60364" lon="4.98258">
        <ele>394</ele>
        <time>2018-05-24T10:32:12Z</time>
      </trkpt>
      <trkpt lat="45.60365" lon="4.98225">
        <ele>394</ele>
        <time>2018-05-24T10:32:24Z</time>
      </trkpt>
      <trkpt lat="45.60367" lon="4.98191">
        <ele>395</ele>
        <time>2018-05-24T10:32:37Z</time>
      </trkpt>
      <trkpt lat="45.60369" lon="4.98158">
        <ele>395</ele>
        <time>2018-05-24T10:32:48Z</time>
      </trkpt>
      <trkpt lat="45.60369" lon="4.98124">
        <ele>395</ele>
        <time>2018-05-24T10:33:00Z</time>
      </trkpt>
      <trkpt lat="45.60367" lon="4.9809">
        <ele>395</ele>
        <time>2018-05-24T10:33:12Z</time>
      </trkpt>
      <trkpt lat="45.60364" lon="4.98058">
        <ele>396</ele>
        <time>2018-05-24T10:33:24Z</time>
      </trkpt>
      <trkpt lat="45.60361" lon="4.98026">
        <ele>396</ele>
        <time>2018-05-24T10:33:36Z</time>
      </trkpt>
      <trkpt lat="45.60358" lon="4.97991">
        <ele>397</ele>
        <time>2018-05-24T10:33:49Z</time>
      </trkpt>
      <trkpt lat="45.60355" lon="4.97959">
        <ele>398</ele>
        <time>2018-05-24T10:37:10Z</time>
      </trkpt>
      <trkpt lat="45.60353" lon="4.97925">
        <ele>397</ele>
        <time>2018-05-24T10:37:21Z</time>
      </trkpt>
      <trkpt lat="45.60351" lon="4.97892">
        <ele>397</ele>
        <time>2018-05-24T10:37:33Z</time>
      </trkpt>
      <trkpt lat="45.60349" lon="4.9786">
        <ele>398</ele>
        <time>2018-05-24T10:37:47Z</time>
      </trkpt>
      <trkpt lat="45.60346" lon="4.97828">
        <ele>395</ele>
        <time>2018-05-24T10:38:00Z</time>
      </trkpt>
      <trkpt lat="45.60346" lon="4.97794">
        <ele>391</ele>
        <time>2018-05-24T10:38:11Z</time>
      </trkpt>
      <trkpt lat="45.60343" lon="4.9776">
        <ele>397</ele>
        <time>2018-05-24T10:38:22Z</time>
      </trkpt>
      <trkpt lat="45.60337" lon="4.97727">
        <ele>399</ele>
        <time>2018-05-24T10:38:33Z</time>
      </trkpt>
      <trkpt lat="45.60331" lon="4.97695">
        <ele>400</ele>
        <time>2018-05-24T10:38:44Z</time>
      </trkpt>
      <trkpt lat="45.60324" lon="4.97662">
        <ele>401</ele>
        <time>2018-05-24T10:38:55Z</time>
      </trkpt>
      <trkpt lat="45.60317" lon="4.9763">
        <ele>396</ele>
        <time>2018-05-24T10:39:04Z</time>
      </trkpt>
      <trkpt lat="45.60308" lon="4.976">
        <ele>394</ele>
        <time>2018-05-24T10:39:15Z</time>
      </trkpt>
      <trkpt lat="45.60296" lon="4.9757">
        <ele>393</ele>
        <time>2018-05-24T10:39:26Z</time>
      </trkpt>
      <trkpt lat="45.6028" lon="4.97544">
        <ele>393</ele>
        <time>2018-05-24T10:39:38Z</time>
      </trkpt>
      <trkpt lat="45.60265" lon="4.9752">
        <ele>394</ele>
        <time>2018-05-24T10:39:49Z</time>
      </trkpt>
      <trkpt lat="45.60249" lon="4.97496">
        <ele>397</ele>
        <time>2018-05-24T10:40:01Z</time>
      </trkpt>
      <trkpt lat="45.60233" lon="4.9747">
        <ele>399</ele>
        <time>2018-05-24T10:40:14Z</time>
      </trkpt>
      <trkpt lat="45.60216" lon="4.97448">
        <ele>396</ele>
        <time>2018-05-24T10:40:25Z</time>
      </trkpt>
      <trkpt lat="45.60202" lon="4.97422">
        <ele>394</ele>
        <time>2018-05-24T10:40:35Z</time>
      </trkpt>
      <trkpt lat="45.60185" lon="4.97399">
        <ele>391</ele>
        <time>2018-05-24T10:40:45Z</time>
      </trkpt>
      <trkpt lat="45.60168" lon="4.97377">
        <ele>391</ele>
        <time>2018-05-24T10:40:56Z</time>
      </trkpt>
      <trkpt lat="45.60149" lon="4.97357">
        <ele>393</ele>
        <time>2018-05-24T10:41:07Z</time>
      </trkpt>
      <trkpt lat="45.60137" lon="4.97331">
        <ele>395</ele>
        <time>2018-05-24T10:41:20Z</time>
      </trkpt>
      <trkpt lat="45.60127" lon="4.973">
        <ele>397</ele>
        <time>2018-05-24T10:41:34Z</time>
      </trkpt>
      <trkpt lat="45.60121" lon="4.97269">
        <ele>395</ele>
        <time>2018-05-24T10:41:47Z</time>
      </trkpt>
      <trkpt lat="45.60117" lon="4.97237">
        <ele>394</ele>
        <time>2018-05-24T10:41:59Z</time>
      </trkpt>
      <trkpt lat="45.60113" lon="4.97204">
        <ele>392</ele>
        <time>2018-05-24T10:42:11Z</time>
      </trkpt>
      <trkpt lat="45.60102" lon="4.97171">
        <ele>389</ele>
        <time>2018-05-24T10:42:21Z</time>
      </trkpt>
      <trkpt lat="45.60092" lon="4.9714">
        <ele>391</ele>
        <time>2018-05-24T10:42:29Z</time>
      </trkpt>
      <trkpt lat="45.60079" lon="4.97109">
        <ele>391</ele>
        <time>2018-05-24T10:42:39Z</time>
      </trkpt>
      <trkpt lat="45.60071" lon="4.97077">
        <ele>395</ele>
        <time>2018-05-24T10:42:49Z</time>
      </trkpt>
      <trkpt lat="45.60063" lon="4.97045">
        <ele>396</ele>
        <time>2018-05-24T10:42:58Z</time>
      </trkpt>
      <trkpt lat="45.60057" lon="4.97011">
        <ele>395</ele>
        <time>2018-05-24T10:43:08Z</time>
      </trkpt>
      <trkpt lat="45.60056" lon="4.96977">
        <ele>395</ele>
        <time>2018-05-24T10:43:18Z</time>
      </trkpt>
      <trkpt lat="45.60047" lon="4.96947">
        <ele>388</ele>
        <time>2018-05-24T10:46:39Z</time>
      </trkpt>
      <trkpt lat="45.60035" lon="4.96919">
        <ele>383</ele>
        <time>2018-05-24T10:46:52Z</time>
      </trkpt>
      <trkpt lat="45.60021" lon="4.96892">
        <ele>381</ele>
        <time>2018-05-24T10:47:06Z</time>
      </trkpt>
      <trkpt lat="45.6001" lon="4.96864">
        <ele>378</ele>
        <time>2018-05-24T10:47:18Z</time>
      </trkpt>
      <trkpt lat="45.59996" lon="4.96838">
        <ele>376</ele>
        <time>2018-05-24T10:48:12Z</time>
      </trkpt>
      <trkpt lat="45.59978" lon="4.96816">
        <ele>373</ele>
        <time>2018-05-24T10:48:26Z</time>
      </trkpt>
      <trkpt lat="45.59958" lon="4.96798">
        <ele>372</ele>
        <time>2018-05-24T10:48:40Z</time>
      </trkpt>
      <trkpt lat="45.59936" lon="4.9679">
        <ele>371</ele>
        <time>2018-05-24T10:48:52Z</time>
      </trkpt>
      <trkpt lat="45.59912" lon="4.96788">
        <ele>367</ele>
        <time>2018-05-24T10:49:03Z</time>
      </trkpt>
      <trkpt lat="45.59888" lon="4.9679">
        <ele>365</ele>
        <time>2018-05-24T10:49:14Z</time>
      </trkpt>
      <trkpt lat="45.59863" lon="4.96794">
        <ele>363</ele>
        <time>2018-05-24T10:49:26Z</time>
      </trkpt>
      <trkpt lat="45.59841" lon="4.96793">
        <ele>362</ele>
        <time>2018-05-24T10:49:38Z</time>
      </trkpt>
      <trkpt lat="45.5982" lon="4.96779">
        <ele>361</ele>
        <time>2018-05-24T10:50:34Z</time>
      </trkpt>
      <trkpt lat="45.598" lon="4.96762">
        <ele>358</ele>
        <time>2018-05-24T10:50:49Z</time>
      </trkpt>
      <trkpt lat="45.59779" lon="4.96747">
        <ele>354</ele>
        <time>2018-05-24T10:51:03Z</time>
      </trkpt>
      <trkpt lat="45.59787" lon="4.96717">
        <ele>349</ele>
        <time>2018-05-24T10:52:08Z</time>
      </trkpt>
      <trkpt lat="45.59803" lon="4.96694">
        <ele>346</ele>
        <time>2018-05-24T10:52:20Z</time>
      </trkpt>
      <trkpt lat="45.59792" lon="4.96663">
        <ele>342</ele>
        <time>2018-05-24T10:52:46Z</time>
      </trkpt>
      <trkpt lat="45.59773" lon="4.96644">
        <ele>342</ele>
        <time>2018-05-24T10:53:02Z</time>
      </trkpt>
      <trkpt lat="45.59752" lon="4.9663">
        <ele>341</ele>
        <time>2018-05-24T10:53:16Z</time>
      </trkpt>
      <trkpt lat="45.59732" lon="4.96614">
        <ele>341</ele>
        <time>2018-05-24T10:53:29Z</time>
      </trkpt>
      <trkpt lat="45.59707" lon="4.96612">
        <ele>338</ele>
        <time>2018-05-24T10:53:43Z</time>
      </trkpt>
      <trkpt lat="45.59683" lon="4.96614">
        <ele>333</ele>
        <time>2018-05-24T10:53:54Z</time>
      </trkpt>
      <trkpt lat="45.59661" lon="4.96609">
        <ele>330</ele>
        <time>2018-05-24T10:54:04Z</time>
      </trkpt>
      <trkpt lat="45.59638" lon="4.96603">
        <ele>325</ele>
        <time>2018-05-24T10:54:14Z</time>
      </trkpt>
      <trkpt lat="45.59615" lon="4.96611">
        <ele>320</ele>
        <time>2018-05-24T10:54:24Z</time>
      </trkpt>
      <trkpt lat="45.59596" lon="4.96629">
        <ele>318</ele>
        <time>2018-05-24T10:55:33Z</time>
      </trkpt>
      <trkpt lat="45.59577" lon="4.96648">
        <ele>313</ele>
        <time>2018-05-24T10:55:46Z</time>
      </trkpt>
      <trkpt lat="45.59555" lon="4.96658">
        <ele>311</ele>
        <time>2018-05-24T10:56:00Z</time>
      </trkpt>
      <trkpt lat="45.59532" lon="4.96655">
        <ele>310</ele>
        <time>2018-05-24T10:56:12Z</time>
      </trkpt>
      <trkpt lat="45.59512" lon="4.96634">
        <ele>307</ele>
        <time>2018-05-24T10:56:24Z</time>
      </trkpt>
      <trkpt lat="45.59493" lon="4.96614">
        <ele>306</ele>
        <time>2018-05-24T10:56:36Z</time>
      </trkpt>
      <trkpt lat="45.59471" lon="4.96603">
        <ele>304</ele>
        <time>2018-05-24T10:56:49Z</time>
      </trkpt>
      <trkpt lat="45.59452" lon="4.96583">
        <ele>302</ele>
        <time>2018-05-24T10:57:01Z</time>
      </trkpt>
      <trkpt lat="45.59438" lon="4.96557">
        <ele>299</ele>
        <time>2018-05-24T10:57:13Z</time>
      </trkpt>
      <trkpt lat="45.59434" lon="4.96524">
        <ele>296</ele>
        <time>2018-05-24T10:57:24Z</time>
      </trkpt>
      <trkpt lat="45.59431" lon="4.96491">
        <ele>294</ele>
        <time>2018-05-24T10:57:35Z</time>
      </trkpt>
      <trkpt lat="45.59422" lon="4.96459">
        <ele>291</ele>
        <time>2018-05-24T10:57:47Z</time>
      </trkpt>
      <trkpt lat="45.5941" lon="4.9643">
        <ele>291</ele>
        <time>2018-05-24T10:59:13Z</time>
      </trkpt>
      <trkpt lat="45.59394" lon="4.96406">
        <ele>286</ele>
        <time>2018-05-24T10:59:26Z</time>
      </trkpt>
      <trkpt lat="45.59379" lon="4.96381">
        <ele>284</ele>
        <time>2018-05-24T10:59:36Z</time>
      </trkpt>
      <trkpt lat="45.59362" lon="4.96357">
        <ele>281</ele>
        <time>2018-05-24T10:59:46Z</time>
      </trkpt>
      <trkpt lat="45.59345" lon="4.96333">
        <ele>279</ele>
        <time>2018-05-24T10:59:56Z</time>
      </trkpt>
      <trkpt lat="45.59326" lon="4.9631">
        <ele>278</ele>
        <time>2018-05-24T11:00:07Z</time>
      </trkpt>
      <trkpt lat="45.59309" lon="4.96287">
        <ele>278</ele>
        <time>2018-05-24T11:00:16Z</time>
      </trkpt>
      <trkpt lat="45.59292" lon="4.96264">
        <ele>279</ele>
        <time>2018-05-24T11:00:25Z</time>
      </trkpt>
      <trkpt lat="45.59277" lon="4.96238">
        <ele>277</ele>
        <time>2018-05-24T11:00:34Z</time>
      </trkpt>
      <trkpt lat="45.59263" lon="4.9621">
        <ele>277</ele>
        <time>2018-05-24T11:00:44Z</time>
      </trkpt>
      <trkpt lat="45.59247" lon="4.96183">
        <ele>280</ele>
        <time>2018-05-24T11:00:55Z</time>
      </trkpt>
      <trkpt lat="45.59233" lon="4.96156">
        <ele>282</ele>
        <time>2018-05-24T11:01:04Z</time>
      </trkpt>
      <trkpt lat="45.59214" lon="4.96137">
        <ele>281</ele>
        <time>2018-05-24T11:01:13Z</time>
      </trkpt>
      <trkpt lat="45.59196" lon="4.96116">
        <ele>280</ele>
        <time>2018-05-24T11:01:22Z</time>
      </trkpt>
      <trkpt lat="45.59178" lon="4.96094">
        <ele>280</ele>
        <time>2018-05-24T11:01:32Z</time>
      </trkpt>
      <trkpt lat="45.59159" lon="4.96074">
        <ele>280</ele>
        <time>2018-05-24T11:01:42Z</time>
      </trkpt>
      <trkpt lat="45.59139" lon="4.96053">
        <ele>279</ele>
        <time>2018-05-24T11:01:51Z</time>
      </trkpt>
      <trkpt lat="45.59119" lon="4.96034">
        <ele>278</ele>
        <time>2018-05-24T11:02:02Z</time>
      </trkpt>
      <trkpt lat="45.59098" lon="4.96019">
        <ele>276</ele>
        <time>2018-05-24T11:02:12Z</time>
      </trkpt>
      <trkpt lat="45.59078" lon="4.96001">
        <ele>275</ele>
        <time>2018-05-24T11:02:22Z</time>
      </trkpt>
      <trkpt lat="45.59058" lon="4.95981">
        <ele>276</ele>
        <time>2018-05-24T11:02:32Z</time>
      </trkpt>
      <trkpt lat="45.59038" lon="4.95964">
        <ele>276</ele>
        <time>2018-05-24T11:02:42Z</time>
      </trkpt>
      <trkpt lat="45.59017" lon="4.95946">
        <ele>276</ele>
        <time>2018-05-24T11:02:51Z</time>
      </trkpt>
      <trkpt lat="45.58997" lon="4.95928">
        <ele>276</ele>
        <time>2018-05-24T11:03:01Z</time>
      </trkpt>
      <trkpt lat="45.58981" lon="4.95905">
        <ele>275</ele>
        <time>2018-05-24T11:03:11Z</time>
      </trkpt>
      <trkpt lat="45.58968" lon="4.95876">
        <ele>274</ele>
        <time>2018-05-24T11:03:21Z</time>
      </trkpt>
      <trkpt lat="45.58951" lon="4.9585">
        <ele>275</ele>
        <time>2018-05-24T11:03:30Z</time>
      </trkpt>
      <trkpt lat="45.58934" lon="4.95826">
        <ele>275</ele>
        <time>2018-05-24T11:03:39Z</time>
      </trkpt>
      <trkpt lat="45.58924" lon="4.95795">
        <ele>274</ele>
        <time>2018-05-24T11:03:49Z</time>
      </trkpt>
      <trkpt lat="45.58912" lon="4.95767">
        <ele>279</ele>
        <time>2018-05-24T11:03:59Z</time>
      </trkpt>
      <trkpt lat="45.58902" lon="4.95738">
        <ele>277</ele>
        <time>2018-05-24T11:04:11Z</time>
      </trkpt>
      <trkpt lat="45.58889" lon="4.9571">
        <ele>280</ele>
        <time>2018-05-24T11:04:22Z</time>
      </trkpt>
      <trkpt lat="45.58883" lon="4.95676">
        <ele>284</ele>
        <time>2018-05-24T11:04:35Z</time>
      </trkpt>
      <trkpt lat="45.58877" lon="4.95643">
        <ele>282</ele>
        <time>2018-05-24T11:04:45Z</time>
      </trkpt>
      <trkpt lat="45.58875" lon="4.95611">
        <ele>281</ele>
        <time>2018-05-24T11:04:57Z</time>
      </trkpt>
      <trkpt lat="45.58868" lon="4.95578">
        <ele>279</ele>
        <time>2018-05-24T11:05:08Z</time>
      </trkpt>
      <trkpt lat="45.58861" lon="4.95554">
        <ele>228.5</ele>
        <time>2018-05-24T11:05:26Z</time>
      </trkpt>
      <trkpt lat="45.58887" lon="4.95512">
        <ele>230.9</ele>
        <time>2018-05-24T11:05:37Z</time>
      </trkpt>
      <trkpt lat="45.58883" lon="4.9541">
        <ele>232</ele>
        <time>2018-05-24T11:05:55Z</time>
      </trkpt>
      <trkpt lat="45.58884" lon="4.95259">
        <ele>231.7</ele>
        <time>2018-05-24T11:07:10Z</time>
      </trkpt>
      <trkpt lat="45.58913" lon="4.95154">
        <ele>230.1</ele>
        <time>2018-05-24T13:17:41Z</time>
      </trkpt>
      <trkpt lat="45.58916" lon="4.95005">
        <ele>226</ele>
        <time>2018-05-24T13:21:25Z</time>
      </trkpt>
      <trkpt lat="45.5892" lon="4.94888">
        <ele>225.8</ele>
        <time>2018-05-24T13:21:57Z</time>
      </trkpt>
      <trkpt lat="45.58895" lon="4.94886">
        <ele>225.3</ele>
        <time>2018-05-24T13:22:07Z</time>
      </trkpt>
      <trkpt lat="45.5889" lon="4.94932">
        <ele>224.8</ele>
        <time>2018-05-24T13:22:36Z</time>
      </trkpt>
      <trkpt lat="45.58884" lon="4.95017">
        <ele>225.3</ele>
        <time>2018-05-24T13:22:42Z</time>
      </trkpt>
      <trkpt lat="45.58919" lon="4.95018">
        <ele>226.3</ele>
        <time>2018-05-24T13:22:48Z</time>
      </trkpt>
      <trkpt lat="45.58912" lon="4.95158">
        <ele>230.2</ele>
        <time>2018-05-24T13:22:55Z</time>
      </trkpt>
      <trkpt lat="45.58888" lon="4.95254">
        <ele>232.2</ele>
        <time>2018-05-24T13:23:03Z</time>
      </trkpt>
      <trkpt lat="45.58886" lon="4.95406">
        <ele>232.3</ele>
        <time>2018-05-24T13:23:13Z</time>
      </trkpt>
      <trkpt lat="45.58888" lon="4.95514">
        <ele>231</ele>
        <time>2018-05-24T13:23:23Z</time>
      </trkpt>
      <trkpt lat="45.58861" lon="4.95553">
        <ele>228.5</ele>
        <time>2018-05-24T13:23:31Z</time>
      </trkpt>
      <trkpt lat="45.58817" lon="4.95469">
        <ele>225.7</ele>
        <time>2018-05-24T13:23:39Z</time>
      </trkpt>
      <trkpt lat="45.58712" lon="4.95329">
        <ele>272</ele>
        <time>2018-05-24T13:23:48Z</time>
      </trkpt>
      <trkpt lat="45.58689" lon="4.95322">
        <ele>272</ele>
        <time>2018-05-24T13:27:02Z</time>
      </trkpt>
      <trkpt lat="45.58664" lon="4.95319">
        <ele>220.8</ele>
        <time>2018-05-24T13:27:25Z</time>
      </trkpt>
      <trkpt lat="45.58643" lon="4.95314">
        <ele>220.5</ele>
        <time>2018-05-24T13:27:32Z</time>
      </trkpt>
      <trkpt lat="45.58619" lon="4.95306">
        <ele>220.1</ele>
        <time>2018-05-24T13:28:19Z</time>
      </trkpt>
      <trkpt lat="45.58605" lon="4.95281">
        <ele>219.6</ele>
        <time>2018-05-24T13:28:25Z</time>
      </trkpt>
      <trkpt lat="45.58597" lon="4.95236">
        <ele>267</ele>
        <time>2018-05-24T13:28:30Z</time>
      </trkpt>
      <trkpt lat="45.58589" lon="4.95206">
        <ele>267</ele>
        <time>2018-05-24T13:28:34Z</time>
      </trkpt>
      <trkpt lat="45.58578" lon="4.95175">
        <ele>267</ele>
        <time>2018-05-24T13:28:39Z</time>
      </trkpt>
      <trkpt lat="45.58564" lon="4.95148">
        <ele>267</ele>
        <time>2018-05-24T13:28:48Z</time>
      </trkpt>
      <trkpt lat="45.58546" lon="4.95126">
        <ele>268</ele>
        <time>2018-05-24T13:29:25Z</time>
      </trkpt>
      <trkpt lat="45.5853" lon="4.95103">
        <ele>268</ele>
        <time>2018-05-24T13:31:43Z</time>
      </trkpt>
      <trkpt lat="45.58513" lon="4.9508">
        <ele>267</ele>
        <time>2018-05-24T13:31:53Z</time>
      </trkpt>
      <trkpt lat="45.58494" lon="4.95056">
        <ele>266</ele>
        <time>2018-05-24T13:32:04Z</time>
      </trkpt>
      <trkpt lat="45.58476" lon="4.95034">
        <ele>266</ele>
        <time>2018-05-24T13:32:15Z</time>
      </trkpt>
      <trkpt lat="45.58458" lon="4.95009">
        <ele>267</ele>
        <time>2018-05-24T13:32:26Z</time>
      </trkpt>
      <trkpt lat="45.58443" lon="4.94982">
        <ele>267</ele>
        <time>2018-05-24T13:32:36Z</time>
      </trkpt>
      <trkpt lat="45.58429" lon="4.94957">
        <ele>267</ele>
        <time>2018-05-24T13:32:46Z</time>
      </trkpt>
      <trkpt lat="45.58414" lon="4.94931">
        <ele>267</ele>
        <time>2018-05-24T13:32:57Z</time>
      </trkpt>
      <trkpt lat="45.584" lon="4.94904">
        <ele>266</ele>
        <time>2018-05-24T13:33:10Z</time>
      </trkpt>
      <trkpt lat="45.58384" lon="4.94878">
        <ele>267</ele>
        <time>2018-05-24T13:33:22Z</time>
      </trkpt>
      <trkpt lat="45.5837" lon="4.94851">
        <ele>267</ele>
        <time>2018-05-24T13:33:32Z</time>
      </trkpt>
      <trkpt lat="45.58355" lon="4.94825">
        <ele>266</ele>
        <time>2018-05-24T13:33:42Z</time>
      </trkpt>
      <trkpt lat="45.58341" lon="4.94798">
        <ele>266</ele>
        <time>2018-05-24T13:33:52Z</time>
      </trkpt>
      <trkpt lat="45.58324" lon="4.94776">
        <ele>267</ele>
        <time>2018-05-24T13:34:02Z</time>
      </trkpt>
      <trkpt lat="45.58305" lon="4.94754">
        <ele>262</ele>
        <time>2018-05-24T13:34:12Z</time>
      </trkpt>
      <trkpt lat="45.58284" lon="4.94734">
        <ele>265</ele>
        <time>2018-05-24T13:34:22Z</time>
      </trkpt>
      <trkpt lat="45.58265" lon="4.94713">
        <ele>266</ele>
        <time>2018-05-24T13:34:33Z</time>
      </trkpt>
      <trkpt lat="45.58246" lon="4.94691">
        <ele>264</ele>
        <time>2018-05-24T13:34:43Z</time>
      </trkpt>
      <trkpt lat="45.58227" lon="4.94668">
        <ele>263</ele>
        <time>2018-05-24T13:34:52Z</time>
      </trkpt>
      <trkpt lat="45.58208" lon="4.94648">
        <ele>263</ele>
        <time>2018-05-24T13:35:02Z</time>
      </trkpt>
      <trkpt lat="45.58189" lon="4.94628">
        <ele>263</ele>
        <time>2018-05-24T13:35:12Z</time>
      </trkpt>
      <trkpt lat="45.5817" lon="4.94608">
        <ele>263</ele>
        <time>2018-05-24T13:35:23Z</time>
      </trkpt>
      <trkpt lat="45.58152" lon="4.94589">
        <ele>265</ele>
        <time>2018-05-24T13:35:34Z</time>
      </trkpt>
      <trkpt lat="45.58132" lon="4.94568">
        <ele>265</ele>
        <time>2018-05-24T13:35:45Z</time>
      </trkpt>
      <trkpt lat="45.58114" lon="4.94547">
        <ele>265</ele>
        <time>2018-05-24T13:35:56Z</time>
      </trkpt>
      <trkpt lat="45.58096" lon="4.94526">
        <ele>263</ele>
        <time>2018-05-24T13:36:06Z</time>
      </trkpt>
      <trkpt lat="45.58076" lon="4.9451">
        <ele>261</ele>
        <time>2018-05-24T13:36:16Z</time>
      </trkpt>
      <trkpt lat="45.58056" lon="4.94496">
        <ele>262</ele>
        <time>2018-05-24T13:36:27Z</time>
      </trkpt>
      <trkpt lat="45.58035" lon="4.94486">
        <ele>261</ele>
        <time>2018-05-24T13:36:38Z</time>
      </trkpt>
      <trkpt lat="45.58012" lon="4.94482">
        <ele>261</ele>
        <time>2018-05-24T13:36:49Z</time>
      </trkpt>
      <trkpt lat="45.57989" lon="4.94495">
        <ele>260</ele>
        <time>2018-05-24T13:37:00Z</time>
      </trkpt>
      <trkpt lat="45.57968" lon="4.94508">
        <ele>259</ele>
        <time>2018-05-24T13:37:10Z</time>
      </trkpt>
      <trkpt lat="45.57944" lon="4.94509">
        <ele>261</ele>
        <time>2018-05-24T13:37:22Z</time>
      </trkpt>
      <trkpt lat="45.57922" lon="4.94508">
        <ele>261</ele>
        <time>2018-05-24T13:37:33Z</time>
      </trkpt>
      <trkpt lat="45.57899" lon="4.94505">
        <ele>262</ele>
        <time>2018-05-24T13:37:45Z</time>
      </trkpt>
      <trkpt lat="45.57876" lon="4.94504">
        <ele>262</ele>
        <time>2018-05-24T13:37:56Z</time>
      </trkpt>
      <trkpt lat="45.57851" lon="4.94502">
        <ele>263</ele>
        <time>2018-05-24T13:38:07Z</time>
      </trkpt>
      <trkpt lat="45.57828" lon="4.94501">
        <ele>263</ele>
        <time>2018-05-24T13:38:18Z</time>
      </trkpt>
      <trkpt lat="45.57805" lon="4.94498">
        <ele>264</ele>
        <time>2018-05-24T13:38:29Z</time>
      </trkpt>
      <trkpt lat="45.57781" lon="4.94495">
        <ele>265</ele>
        <time>2018-05-24T13:38:40Z</time>
      </trkpt>
      <trkpt lat="45.57758" lon="4.94492">
        <ele>265</ele>
        <time>2018-05-24T13:38:51Z</time>
      </trkpt>
      <trkpt lat="45.57735" lon="4.94489">
        <ele>266</ele>
        <time>2018-05-24T13:39:02Z</time>
      </trkpt>
      <trkpt lat="45.57712" lon="4.94486">
        <ele>265</ele>
        <time>2018-05-24T13:39:13Z</time>
      </trkpt>
      <trkpt lat="45.57689" lon="4.94482">
        <ele>265</ele>
        <time>2018-05-24T13:39:24Z</time>
      </trkpt>
      <trkpt lat="45.57666" lon="4.9448">
        <ele>266</ele>
        <time>2018-05-24T13:39:36Z</time>
      </trkpt>
      <trkpt lat="45.57659" lon="4.94513">
        <ele>268</ele>
        <time>2018-05-24T13:40:04Z</time>
      </trkpt>
      <trkpt lat="45.5765" lon="4.94543">
        <ele>266</ele>
        <time>2018-05-24T13:40:13Z</time>
      </trkpt>
      <trkpt lat="45.57641" lon="4.94573">
        <ele>266</ele>
        <time>2018-05-24T13:40:22Z</time>
      </trkpt>
      <trkpt lat="45.57631" lon="4.94605">
        <ele>267</ele>
        <time>2018-05-24T13:40:33Z</time>
      </trkpt>
      <trkpt lat="45.57622" lon="4.94635">
        <ele>267</ele>
        <time>2018-05-24T13:40:43Z</time>
      </trkpt>
      <trkpt lat="45.57612" lon="4.94667">
        <ele>267</ele>
        <time>2018-05-24T13:40:53Z</time>
      </trkpt>
      <trkpt lat="45.57603" lon="4.94698">
        <ele>267</ele>
        <time>2018-05-24T13:41:01Z</time>
      </trkpt>
      <trkpt lat="45.57593" lon="4.94728">
        <ele>267</ele>
        <time>2018-05-24T13:41:10Z</time>
      </trkpt>
      <trkpt lat="45.57584" lon="4.94759">
        <ele>267</ele>
        <time>2018-05-24T13:41:20Z</time>
      </trkpt>
      <trkpt lat="45.57575" lon="4.94788">
        <ele>267</ele>
        <time>2018-05-24T13:41:29Z</time>
      </trkpt>
      <trkpt lat="45.57565" lon="4.94819">
        <ele>267</ele>
        <time>2018-05-24T13:41:38Z</time>
      </trkpt>
      <trkpt lat="45.57556" lon="4.9485">
        <ele>267</ele>
        <time>2018-05-24T13:41:46Z</time>
      </trkpt>
      <trkpt lat="45.57546" lon="4.94883">
        <ele>267</ele>
        <time>2018-05-24T13:41:54Z</time>
      </trkpt>
      <trkpt lat="45.57536" lon="4.94912">
        <ele>268</ele>
        <time>2018-05-24T13:42:03Z</time>
      </trkpt>
      <trkpt lat="45.57527" lon="4.94943">
        <ele>268</ele>
        <time>2018-05-24T13:42:13Z</time>
      </trkpt>
      <trkpt lat="45.57518" lon="4.94975">
        <ele>268</ele>
        <time>2018-05-24T13:42:21Z</time>
      </trkpt>
      <trkpt lat="45.57509" lon="4.95006">
        <ele>269</ele>
        <time>2018-05-24T13:42:30Z</time>
      </trkpt>
      <trkpt lat="45.57499" lon="4.95035">
        <ele>269</ele>
        <time>2018-05-24T13:42:39Z</time>
      </trkpt>
      <trkpt lat="45.57491" lon="4.95067">
        <ele>269</ele>
        <time>2018-05-24T13:42:48Z</time>
      </trkpt>
      <trkpt lat="45.5748" lon="4.95099">
        <ele>269</ele>
        <time>2018-05-24T13:42:57Z</time>
      </trkpt>
      <trkpt lat="45.5747" lon="4.95131">
        <ele>269</ele>
        <time>2018-05-24T13:43:07Z</time>
      </trkpt>
      <trkpt lat="45.57461" lon="4.95162">
        <ele>269</ele>
        <time>2018-05-24T13:43:16Z</time>
      </trkpt>
      <trkpt lat="45.57452" lon="4.95192">
        <ele>268</ele>
        <time>2018-05-24T13:43:25Z</time>
      </trkpt>
      <trkpt lat="45.57442" lon="4.95224">
        <ele>269</ele>
        <time>2018-05-24T13:43:34Z</time>
      </trkpt>
      <trkpt lat="45.57433" lon="4.95254">
        <ele>269</ele>
        <time>2018-05-24T13:43:42Z</time>
      </trkpt>
      <trkpt lat="45.57423" lon="4.95283">
        <ele>270</ele>
        <time>2018-05-24T13:43:49Z</time>
      </trkpt>
      <trkpt lat="45.57414" lon="4.95314">
        <ele>270</ele>
        <time>2018-05-24T13:43:56Z</time>
      </trkpt>
      <trkpt lat="45.57405" lon="4.95345">
        <ele>271</ele>
        <time>2018-05-24T13:44:03Z</time>
      </trkpt>
      <trkpt lat="45.57395" lon="4.95377">
        <ele>271</ele>
        <time>2018-05-24T13:44:11Z</time>
      </trkpt>
      <trkpt lat="45.57386" lon="4.9541">
        <ele>271</ele>
        <time>2018-05-24T13:44:19Z</time>
      </trkpt>
      <trkpt lat="45.57377" lon="4.95439">
        <ele>271</ele>
        <time>2018-05-24T13:44:26Z</time>
      </trkpt>
      <trkpt lat="45.57364" lon="4.9547">
        <ele>271</ele>
        <time>2018-05-24T13:44:35Z</time>
      </trkpt>
      <trkpt lat="45.57367" lon="4.95475">
        <ele>219.7</ele>
        <time>2018-05-24T13:45:24Z</time>
      </trkpt>
      <trkpt lat="45.57364" lon="4.9548">
        <ele>272</ele>
        <time>2018-05-24T13:57:06Z</time>
      </trkpt>
      <trkpt lat="45.57354" lon="4.95511">
        <ele>273</ele>
        <time>2018-05-24T13:57:19Z</time>
      </trkpt>
      <trkpt lat="45.57344" lon="4.95541">
        <ele>274</ele>
        <time>2018-05-24T13:57:30Z</time>
      </trkpt>
      <trkpt lat="45.57335" lon="4.95572">
        <ele>274</ele>
        <time>2018-05-24T13:57:40Z</time>
      </trkpt>
      <trkpt lat="45.57326" lon="4.95602">
        <ele>274</ele>
        <time>2018-05-24T13:57:49Z</time>
      </trkpt>
      <trkpt lat="45.57316" lon="4.95633">
        <ele>273</ele>
        <time>2018-05-24T13:57:59Z</time>
      </trkpt>
      <trkpt lat="45.57306" lon="4.95664">
        <ele>273</ele>
        <time>2018-05-24T13:58:09Z</time>
      </trkpt>
      <trkpt lat="45.57296" lon="4.95696">
        <ele>272</ele>
        <time>2018-05-24T13:58:19Z</time>
      </trkpt>
      <trkpt lat="45.57287" lon="4.95727">
        <ele>272</ele>
        <time>2018-05-24T13:58:29Z</time>
      </trkpt>
      <trkpt lat="45.57292" lon="4.95761">
        <ele>269</ele>
        <time>2018-05-24T13:59:33Z</time>
      </trkpt>
      <trkpt lat="45.573" lon="4.95796">
        <ele>269</ele>
        <time>2018-05-24T13:59:39Z</time>
      </trkpt>
      <trkpt lat="45.57303" lon="4.9583">
        <ele>271</ele>
        <time>2018-05-24T13:59:47Z</time>
      </trkpt>
      <trkpt lat="45.5731" lon="4.95863">
        <ele>271</ele>
        <time>2018-05-24T13:59:55Z</time>
      </trkpt>
      <trkpt lat="45.57318" lon="4.95898">
        <ele>271</ele>
        <time>2018-05-24T14:00:01Z</time>
      </trkpt>
      <trkpt lat="45.57324" lon="4.95933">
        <ele>270</ele>
        <time>2018-05-24T14:00:06Z</time>
      </trkpt>
      <trkpt lat="45.57331" lon="4.95966">
        <ele>268</ele>
        <time>2018-05-24T14:00:11Z</time>
      </trkpt>
      <trkpt lat="45.57336" lon="4.96001">
        <ele>268</ele>
        <time>2018-05-24T14:00:16Z</time>
      </trkpt>
      <trkpt lat="45.57342" lon="4.96035">
        <ele>268</ele>
        <time>2018-05-24T14:00:21Z</time>
      </trkpt>
      <trkpt lat="45.57349" lon="4.96065">
        <ele>267</ele>
        <time>2018-05-24T14:00:26Z</time>
      </trkpt>
      <trkpt lat="45.57354" lon="4.96097">
        <ele>267</ele>
        <time>2018-05-24T14:00:32Z</time>
      </trkpt>
      <trkpt lat="45.57362" lon="4.96133">
        <ele>267</ele>
        <time>2018-05-24T14:00:39Z</time>
      </trkpt>
      <trkpt lat="45.57368" lon="4.96167">
        <ele>267</ele>
        <time>2018-05-24T14:00:47Z</time>
      </trkpt>
      <trkpt lat="45.57376" lon="4.962">
        <ele>267</ele>
        <time>2018-05-24T14:00:56Z</time>
      </trkpt>
      <trkpt lat="45.57384" lon="4.96234">
        <ele>267</ele>
        <time>2018-05-24T14:01:05Z</time>
      </trkpt>
      <trkpt lat="45.57392" lon="4.96265">
        <ele>268</ele>
        <time>2018-05-24T14:01:14Z</time>
      </trkpt>
      <trkpt lat="45.57399" lon="4.96299">
        <ele>268</ele>
        <time>2018-05-24T14:01:23Z</time>
      </trkpt>
      <trkpt lat="45.57406" lon="4.96329">
        <ele>270</ele>
        <time>2018-05-24T14:01:31Z</time>
      </trkpt>
      <trkpt lat="45.57412" lon="4.9636">
        <ele>270</ele>
        <time>2018-05-24T14:01:39Z</time>
      </trkpt>
      <trkpt lat="45.5742" lon="4.96393">
        <ele>271</ele>
        <time>2018-05-24T14:01:49Z</time>
      </trkpt>
      <trkpt lat="45.57427" lon="4.96426">
        <ele>271</ele>
        <time>2018-05-24T14:01:59Z</time>
      </trkpt>
      <trkpt lat="45.57435" lon="4.96457">
        <ele>270</ele>
        <time>2018-05-24T14:02:08Z</time>
      </trkpt>
      <trkpt lat="45.57445" lon="4.9649">
        <ele>270</ele>
        <time>2018-05-24T14:02:17Z</time>
      </trkpt>
      <trkpt lat="45.57456" lon="4.96518">
        <ele>270</ele>
        <time>2018-05-24T14:02:26Z</time>
      </trkpt>
      <trkpt lat="45.57468" lon="4.96546">
        <ele>271</ele>
        <time>2018-05-24T14:02:35Z</time>
      </trkpt>
      <trkpt lat="45.5748" lon="4.96575">
        <ele>272</ele>
        <time>2018-05-24T14:02:44Z</time>
      </trkpt>
      <trkpt lat="45.57492" lon="4.96604">
        <ele>272</ele>
        <time>2018-05-24T14:02:53Z</time>
      </trkpt>
      <trkpt lat="45.57504" lon="4.96634">
        <ele>272</ele>
        <time>2018-05-24T14:03:02Z</time>
      </trkpt>
      <trkpt lat="45.57512" lon="4.96665">
        <ele>272</ele>
        <time>2018-05-24T14:03:11Z</time>
      </trkpt>
      <trkpt lat="45.57517" lon="4.96697">
        <ele>271</ele>
        <time>2018-05-24T14:03:20Z</time>
      </trkpt>
      <trkpt lat="45.57521" lon="4.96731">
        <ele>270</ele>
        <time>2018-05-24T14:03:30Z</time>
      </trkpt>
      <trkpt lat="45.57523" lon="4.96764">
        <ele>269</ele>
        <time>2018-05-24T14:03:39Z</time>
      </trkpt>
      <trkpt lat="45.57523" lon="4.96797">
        <ele>269</ele>
        <time>2018-05-24T14:03:49Z</time>
      </trkpt>
      <trkpt lat="45.57519" lon="4.96831">
        <ele>268</ele>
        <time>2018-05-24T14:03:59Z</time>
      </trkpt>
      <trkpt lat="45.57514" lon="4.96865">
        <ele>270</ele>
        <time>2018-05-24T14:04:09Z</time>
      </trkpt>
      <trkpt lat="45.57508" lon="4.96899">
        <ele>270</ele>
        <time>2018-05-24T14:04:19Z</time>
      </trkpt>
      <trkpt lat="45.57506" lon="4.96934">
        <ele>270</ele>
        <time>2018-05-24T14:04:29Z</time>
      </trkpt>
      <trkpt lat="45.57504" lon="4.96969">
        <ele>270</ele>
        <time>2018-05-24T14:04:39Z</time>
      </trkpt>
      <trkpt lat="45.57504" lon="4.97004">
        <ele>270</ele>
        <time>2018-05-24T14:04:49Z</time>
      </trkpt>
      <trkpt lat="45.57505" lon="4.97039">
        <ele>270</ele>
        <time>2018-05-24T14:04:59Z</time>
      </trkpt>
      <trkpt lat="45.57507" lon="4.97074">
        <ele>270</ele>
        <time>2018-05-24T14:05:09Z</time>
      </trkpt>
      <trkpt lat="45.57506" lon="4.97107">
        <ele>270</ele>
        <time>2018-05-24T14:05:19Z</time>
      </trkpt>
      <trkpt lat="45.57503" lon="4.97142">
        <ele>270</ele>
        <time>2018-05-24T14:05:30Z</time>
      </trkpt>
      <trkpt lat="45.57498" lon="4.97176">
        <ele>272</ele>
        <time>2018-05-24T14:05:41Z</time>
      </trkpt>
      <trkpt lat="45.57491" lon="4.9721">
        <ele>273</ele>
        <time>2018-05-24T14:05:52Z</time>
      </trkpt>
      <trkpt lat="45.57484" lon="4.97243">
        <ele>275</ele>
        <time>2018-05-24T14:06:03Z</time>
      </trkpt>
      <trkpt lat="45.57484" lon="4.97277">
        <ele>273</ele>
        <time>2018-05-24T14:06:13Z</time>
      </trkpt>
      <trkpt lat="45.57488" lon="4.97309">
        <ele>274</ele>
        <time>2018-05-24T14:06:24Z</time>
      </trkpt>
      <trkpt lat="45.57495" lon="4.97342">
        <ele>273</ele>
        <time>2018-05-24T14:06:35Z</time>
      </trkpt>
      <trkpt lat="45.57505" lon="4.97372">
        <ele>273</ele>
        <time>2018-05-24T14:06:45Z</time>
      </trkpt>
      <trkpt lat="45.57518" lon="4.974">
        <ele>274</ele>
        <time>2018-05-24T14:06:55Z</time>
      </trkpt>
      <trkpt lat="45.5753" lon="4.97429">
        <ele>273</ele>
        <time>2018-05-24T14:07:05Z</time>
      </trkpt>
      <trkpt lat="45.57539" lon="4.97459">
        <ele>273</ele>
        <time>2018-05-24T14:07:15Z</time>
      </trkpt>
      <trkpt lat="45.57544" lon="4.97492">
        <ele>274</ele>
        <time>2018-05-24T14:07:25Z</time>
      </trkpt>
      <trkpt lat="45.57548" lon="4.97526">
        <ele>274</ele>
        <time>2018-05-24T14:07:35Z</time>
      </trkpt>
      <trkpt lat="45.57553" lon="4.97558">
        <ele>274</ele>
        <time>2018-05-24T14:07:44Z</time>
      </trkpt>
      <trkpt lat="45.57556" lon="4.97592">
        <ele>274</ele>
        <time>2018-05-24T14:07:55Z</time>
      </trkpt>
      <trkpt lat="45.57556" lon="4.97624">
        <ele>274</ele>
        <time>2018-05-24T14:08:05Z</time>
      </trkpt>
      <trkpt lat="45.57548" lon="4.97656">
        <ele>275</ele>
        <time>2018-05-24T14:08:15Z</time>
      </trkpt>
      <trkpt lat="45.57544" lon="4.97687">
        <ele>224.3</ele>
        <time>2018-05-24T14:13:08Z</time>
      </trkpt>
      <trkpt lat="45.57538" lon="4.97745">
        <ele>224.1</ele>
        <time>2018-05-24T14:13:17Z</time>
      </trkpt>
      <trkpt lat="45.57546" lon="4.97782">
        <ele>275</ele>
        <time>2018-05-24T14:20:10Z</time>
      </trkpt>
      <trkpt lat="45.57556" lon="4.97815">
        <ele>275</ele>
        <time>2018-05-24T14:20:18Z</time>
      </trkpt>
      <trkpt lat="45.57561" lon="4.97847">
        <ele>275</ele>
        <time>2018-05-24T14:20:44Z</time>
      </trkpt>
      <trkpt lat="45.57564" lon="4.97879">
        <ele>276</ele>
        <time>2018-05-24T14:29:09Z</time>
      </trkpt>
      <trkpt lat="45.57566" lon="4.97912">
        <ele>277</ele>
        <time>2018-05-24T14:29:24Z</time>
      </trkpt>
      <trkpt lat="45.57569" lon="4.97944">
        <ele>276</ele>
        <time>2018-05-24T14:29:34Z</time>
      </trkpt>
      <trkpt lat="45.57574" lon="4.97978">
        <ele>277</ele>
        <time>2018-05-24T14:29:44Z</time>
      </trkpt>
      <trkpt lat="45.57575" lon="4.98011">
        <ele>277</ele>
        <time>2018-05-24T14:29:54Z</time>
      </trkpt>
      <trkpt lat="45.57577" lon="4.98044">
        <ele>276</ele>
        <time>2018-05-24T14:30:03Z</time>
      </trkpt>
      <trkpt lat="45.57576" lon="4.98079">
        <ele>276</ele>
        <time>2018-05-24T14:30:13Z</time>
      </trkpt>
      <trkpt lat="45.57575" lon="4.98113">
        <ele>276</ele>
        <time>2018-05-24T14:30:23Z</time>
      </trkpt>
      <trkpt lat="45.57573" lon="4.98146">
        <ele>276</ele>
        <time>2018-05-24T14:30:33Z</time>
      </trkpt>
      <trkpt lat="45.57571" lon="4.98181">
        <ele>277</ele>
        <time>2018-05-24T14:30:43Z</time>
      </trkpt>
      <trkpt lat="45.5757" lon="4.98215">
        <ele>277</ele>
        <time>2018-05-24T14:30:54Z</time>
      </trkpt>
      <trkpt lat="45.5758" lon="4.98244">
        <ele>278</ele>
        <time>2018-05-24T14:32:02Z</time>
      </trkpt>
      <trkpt lat="45.57591" lon="4.98272">
        <ele>280</ele>
        <time>2018-05-24T14:32:12Z</time>
      </trkpt>
      <trkpt lat="45.57601" lon="4.98301">
        <ele>279</ele>
        <time>2018-05-24T14:32:22Z</time>
      </trkpt>
      <trkpt lat="45.5761" lon="4.98333">
        <ele>280</ele>
        <time>2018-05-24T14:32:34Z</time>
      </trkpt>
      <trkpt lat="45.57614" lon="4.98366">
        <ele>278</ele>
        <time>2018-05-24T14:32:44Z</time>
      </trkpt>
      <trkpt lat="45.57615" lon="4.984">
        <ele>279</ele>
        <time>2018-05-24T14:32:54Z</time>
      </trkpt>
      <trkpt lat="45.57617" lon="4.98432">
        <ele>279</ele>
        <time>2018-05-24T14:33:03Z</time>
      </trkpt>
      <trkpt lat="45.57616" lon="4.98465">
        <ele>278</ele>
        <time>2018-05-24T14:33:12Z</time>
      </trkpt>
      <trkpt lat="45.57616" lon="4.985">
        <ele>279</ele>
        <time>2018-05-24T14:33:21Z</time>
      </trkpt>
      <trkpt lat="45.57615" lon="4.98533">
        <ele>279</ele>
        <time>2018-05-24T14:33:30Z</time>
      </trkpt>
      <trkpt lat="45.57618" lon="4.98566">
        <ele>278</ele>
        <time>2018-05-24T14:33:39Z</time>
      </trkpt>
      <trkpt lat="45.57617" lon="4.986">
        <ele>277</ele>
        <time>2018-05-24T14:33:48Z</time>
      </trkpt>
      <trkpt lat="45.57618" lon="4.98635">
        <ele>277</ele>
        <time>2018-05-24T14:33:58Z</time>
      </trkpt>
      <trkpt lat="45.57617" lon="4.9867">
        <ele>277</ele>
        <time>2018-05-24T14:34:08Z</time>
      </trkpt>
      <trkpt lat="45.57618" lon="4.98704">
        <ele>277</ele>
        <time>2018-05-24T14:34:17Z</time>
      </trkpt>
      <trkpt lat="45.57618" lon="4.98738">
        <ele>277</ele>
        <time>2018-05-24T14:34:26Z</time>
      </trkpt>
      <trkpt lat="45.57616" lon="4.9877">
        <ele>278</ele>
        <time>2018-05-24T14:34:35Z</time>
      </trkpt>
      <trkpt lat="45.57632" lon="4.98794">
        <ele>278</ele>
        <time>2018-05-24T14:34:45Z</time>
      </trkpt>
      <trkpt lat="45.57656" lon="4.98797">
        <ele>277</ele>
        <time>2018-05-24T14:34:53Z</time>
      </trkpt>
      <trkpt lat="45.5768" lon="4.988">
        <ele>277</ele>
        <time>2018-05-24T14:35:02Z</time>
      </trkpt>
      <trkpt lat="45.57704" lon="4.98803">
        <ele>277</ele>
        <time>2018-05-24T14:35:11Z</time>
      </trkpt>
      <trkpt lat="45.57727" lon="4.98806">
        <ele>278</ele>
        <time>2018-05-24T14:35:20Z</time>
      </trkpt>
      <trkpt lat="45.57751" lon="4.98808">
        <ele>278</ele>
        <time>2018-05-24T14:35:29Z</time>
      </trkpt>
      <trkpt lat="45.57775" lon="4.98811">
        <ele>278</ele>
        <time>2018-05-24T14:35:38Z</time>
      </trkpt>
      <trkpt lat="45.57798" lon="4.98813">
        <ele>278</ele>
        <time>2018-05-24T14:35:47Z</time>
      </trkpt>
      <trkpt lat="45.57821" lon="4.98816">
        <ele>279</ele>
        <time>2018-05-24T14:35:56Z</time>
      </trkpt>
      <trkpt lat="45.57844" lon="4.98819">
        <ele>278</ele>
        <time>2018-05-24T14:36:05Z</time>
      </trkpt>
      <trkpt lat="45.57867" lon="4.98821">
        <ele>279</ele>
        <time>2018-05-24T14:36:13Z</time>
      </trkpt>
      <trkpt lat="45.5789" lon="4.98823">
        <ele>279</ele>
        <time>2018-05-24T14:36:22Z</time>
      </trkpt>
      <trkpt lat="45.57913" lon="4.98827">
        <ele>280</ele>
        <time>2018-05-24T14:36:31Z</time>
      </trkpt>
      <trkpt lat="45.57937" lon="4.9883">
        <ele>279</ele>
        <time>2018-05-24T14:36:40Z</time>
      </trkpt>
      <trkpt lat="45.5796" lon="4.98833">
        <ele>279</ele>
        <time>2018-05-24T14:36:49Z</time>
      </trkpt>
      <trkpt lat="45.57984" lon="4.98835">
        <ele>279</ele>
        <time>2018-05-24T14:36:58Z</time>
      </trkpt>
      <trkpt lat="45.58008" lon="4.98838">
        <ele>279</ele>
        <time>2018-05-24T14:37:08Z</time>
      </trkpt>
      <trkpt lat="45.58032" lon="4.9884">
        <ele>279</ele>
        <time>2018-05-24T14:37:19Z</time>
      </trkpt>
      <trkpt lat="45.58056" lon="4.98845">
        <ele>278</ele>
        <time>2018-05-24T14:37:29Z</time>
      </trkpt>
      <trkpt lat="45.58075" lon="4.98864">
        <ele>278</ele>
        <time>2018-05-24T14:37:37Z</time>
      </trkpt>
      <trkpt lat="45.58086" lon="4.98892">
        <ele>279</ele>
        <time>2018-05-24T14:37:46Z</time>
      </trkpt>
      <trkpt lat="45.58096" lon="4.98922">
        <ele>280</ele>
        <time>2018-05-24T14:37:55Z</time>
      </trkpt>
      <trkpt lat="45.58106" lon="4.98954">
        <ele>280</ele>
        <time>2018-05-24T14:38:05Z</time>
      </trkpt>
      <trkpt lat="45.58125" lon="4.98974">
        <ele>279</ele>
        <time>2018-05-24T14:38:14Z</time>
      </trkpt>
      <trkpt lat="45.58144" lon="4.98993">
        <ele>280</ele>
        <time>2018-05-24T14:38:23Z</time>
      </trkpt>
      <trkpt lat="45.58162" lon="4.99013">
        <ele>280</ele>
        <time>2018-05-24T14:38:32Z</time>
      </trkpt>
      <trkpt lat="45.58182" lon="4.99032">
        <ele>281</ele>
        <time>2018-05-24T14:38:41Z</time>
      </trkpt>
      <trkpt lat="45.582" lon="4.99053">
        <ele>281</ele>
        <time>2018-05-24T14:38:51Z</time>
      </trkpt>
      <trkpt lat="45.58223" lon="4.99061">
        <ele>281</ele>
        <time>2018-05-24T14:39:00Z</time>
      </trkpt>
      <trkpt lat="45.58246" lon="4.9907">
        <ele>282</ele>
        <time>2018-05-24T14:39:10Z</time>
      </trkpt>
      <trkpt lat="45.58269" lon="4.99079">
        <ele>284</ele>
        <time>2018-05-24T14:39:20Z</time>
      </trkpt>
      <trkpt lat="45.58292" lon="4.99087">
        <ele>285</ele>
        <time>2018-05-24T14:39:30Z</time>
      </trkpt>
      <trkpt lat="45.58311" lon="4.99089">
        <ele>243</ele>
        <time>2018-05-24T14:45:33Z</time>
      </trkpt>
      <trkpt lat="45.58307" lon="4.99144">
        <ele>284</ele>
        <time>2018-05-24T14:45:45Z</time>
      </trkpt>
      <trkpt lat="45.58307" lon="4.99176">
        <ele>283</ele>
        <time>2018-05-24T14:45:57Z</time>
      </trkpt>
      <trkpt lat="45.5831" lon="4.99209">
        <ele>285</ele>
        <time>2018-05-24T14:46:08Z</time>
      </trkpt>
      <trkpt lat="45.58313" lon="4.99242">
        <ele>286</ele>
        <time>2018-05-24T14:46:20Z</time>
      </trkpt>
      <trkpt lat="45.58318" lon="4.99274">
        <ele>285</ele>
        <time>2018-05-24T14:46:32Z</time>
      </trkpt>
      <trkpt lat="45.58323" lon="4.99307">
        <ele>285</ele>
        <time>2018-05-24T14:46:43Z</time>
      </trkpt>
      <trkpt lat="45.58328" lon="4.99338">
        <ele>286</ele>
        <time>2018-05-24T14:46:54Z</time>
      </trkpt>
      <trkpt lat="45.58334" lon="4.99373">
        <ele>286</ele>
        <time>2018-05-24T14:47:04Z</time>
      </trkpt>
      <trkpt lat="45.58338" lon="4.99407">
        <ele>285</ele>
        <time>2018-05-24T14:47:14Z</time>
      </trkpt>
      <trkpt lat="45.58343" lon="4.99441">
        <ele>286</ele>
        <time>2018-05-24T14:47:24Z</time>
      </trkpt>
      <trkpt lat="45.58348" lon="4.99474">
        <ele>287</ele>
        <time>2018-05-24T14:47:34Z</time>
      </trkpt>
      <trkpt lat="45.58353" lon="4.99508">
        <ele>287</ele>
        <time>2018-05-24T14:47:45Z</time>
      </trkpt>
      <trkpt lat="45.58357" lon="4.9954">
        <ele>289</ele>
        <time>2018-05-24T14:47:55Z</time>
      </trkpt>
      <trkpt lat="45.58362" lon="4.99572">
        <ele>289</ele>
        <time>2018-05-24T14:48:05Z</time>
      </trkpt>
      <trkpt lat="45.58364" lon="4.99605">
        <ele>290</ele>
        <time>2018-05-24T14:48:16Z</time>
      </trkpt>
      <trkpt lat="45.58372" lon="4.99634">
        <ele>289</ele>
        <time>2018-05-24T14:48:25Z</time>
      </trkpt>
      <trkpt lat="45.58379" lon="4.99667">
        <ele>288</ele>
        <time>2018-05-24T14:48:35Z</time>
      </trkpt>
      <trkpt lat="45.58385" lon="4.99699">
        <ele>289</ele>
        <time>2018-05-24T14:48:45Z</time>
      </trkpt>
      <trkpt lat="45.5839" lon="4.99731">
        <ele>289</ele>
        <time>2018-05-24T14:48:54Z</time>
      </trkpt>
      <trkpt lat="45.58394" lon="4.99763">
        <ele>289</ele>
        <time>2018-05-24T14:49:03Z</time>
      </trkpt>
      <trkpt lat="45.58399" lon="4.99797">
        <ele>288</ele>
        <time>2018-05-24T14:49:12Z</time>
      </trkpt>
      <trkpt lat="45.58404" lon="4.9983">
        <ele>288</ele>
        <time>2018-05-24T14:49:20Z</time>
      </trkpt>
      <trkpt lat="45.5841" lon="4.99861">
        <ele>288</ele>
        <time>2018-05-24T14:49:32Z</time>
      </trkpt>
      <trkpt lat="45.58435" lon="4.99853">
        <ele>291</ele>
        <time>2018-05-24T14:50:11Z</time>
      </trkpt>
      <trkpt lat="45.58457" lon="4.99841">
        <ele>291</ele>
        <time>2018-05-24T14:50:16Z</time>
      </trkpt>
      <trkpt lat="45.58481" lon="4.99827">
        <ele>291</ele>
        <time>2018-05-24T14:50:23Z</time>
      </trkpt>
      <trkpt lat="45.58503" lon="4.99816">
        <ele>292</ele>
        <time>2018-05-24T14:50:31Z</time>
      </trkpt>
      <trkpt lat="45.58525" lon="4.9981">
        <ele>293</ele>
        <time>2018-05-24T14:50:40Z</time>
      </trkpt>
      <trkpt lat="45.58549" lon="4.9981">
        <ele>293</ele>
        <time>2018-05-24T14:50:50Z</time>
      </trkpt>
      <trkpt lat="45.58573" lon="4.99809">
        <ele>294</ele>
        <time>2018-05-24T14:51:00Z</time>
      </trkpt>
      <trkpt lat="45.58597" lon="4.99814">
        <ele>295</ele>
        <time>2018-05-24T14:51:10Z</time>
      </trkpt>
      <trkpt lat="45.58619" lon="4.99822">
        <ele>297</ele>
        <time>2018-05-24T14:51:22Z</time>
      </trkpt>
      <trkpt lat="45.58641" lon="4.99832">
        <ele>299</ele>
        <time>2018-05-24T14:51:36Z</time>
      </trkpt>
      <trkpt lat="45.58651" lon="4.99864">
        <ele>300</ele>
        <time>2018-05-24T14:51:48Z</time>
      </trkpt>
      <trkpt lat="45.58665" lon="4.99892">
        <ele>297</ele>
        <time>2018-05-24T14:51:57Z</time>
      </trkpt>
      <trkpt lat="45.58663" lon="4.99926">
        <ele>296</ele>
        <time>2018-05-24T14:52:09Z</time>
      </trkpt>
      <trkpt lat="45.58641" lon="4.99913">
        <ele>296</ele>
        <time>2018-05-24T14:52:23Z</time>
      </trkpt>
      <trkpt lat="45.58618" lon="4.99912">
        <ele>301</ele>
        <time>2018-05-24T14:59:54Z</time>
      </trkpt>
    </trkseg>
  </trk>
</gpx>